sensor_id;sensor_type;location;lat;lon;timestamp;pressure;altitude;pressure_sealevel;temperature;humidity
36600;BME280;35385;55.668;37.508;2023-05-11T00:00:08;99838.91;;;12.62;100.00
36600;BME280;35385;55.668;37.508;2023-05-11T00:01:10;99869.13;;;12.73;100.00
36600;BME280;35385;55.668;37.508;2023-05-11T00:02:13;99832.63;;;12.42;100.00
36600;BME280;35385;55.668;37.508;2023-05-11T00:03:14;99874.72;;;12.61;100.00
36600;BME280;35385;55.668;37.508;2023-05-11T00:04:15;99873.59;;;12.54;100.00
36600;BME280;35385;55.668;37.508;2023-05-11T00:05:15;99828.28;;;12.20;100.00
36600;BME280;35385;55.668;37.508;2023-05-11T00:06:16;99845.00;;;12.33;100.00
36600;BME280;35385;55.668;37.508;2023-05-11T00:07:16;99869.47;;;12.50;100.00
36600;BME280;35385;55.668;37.508;2023-05-11T00:08:17;99872.16;;;12.50;100.00
36600;BME280;35385;55.668;37.508;2023-05-11T00:09:19;99874.69;;;12.51;100.00
36600;BME280;35385;55.668;37.508;2023-05-11T00:10:20;99869.59;;;12.48;100.00
36600;BME280;35385;55.668;37.508;2023-05-11T00:11:20;99874.97;;;12.48;100.00
36600;BME280;35385;55.668;37.508;2023-05-11T00:12:21;99867.91;;;12.47;100.00
36600;BME280;35385;55.668;37.508;2023-05-11T00:13:21;99872.28;;;12.48;100.00
36600;BME280;35385;55.668;37.508;2023-05-11T00:14:22;99824.38;;;12.24;100.00
36600;BME280;35385;55.668;37.508;2023-05-11T00:15:23;99874.00;;;12.59;100.00
36600;BME280;35385;55.668;37.508;2023-05-11T00:16:23;99833.88;;;12.38;100.00
36600;BME280;35385;55.668;37.508;2023-05-11T00:17:24;99851.59;;;12.60;100.00
36600;BME280;35385;55.668;37.508;2023-05-11T00:18:25;99860.94;;;12.65;100.00
36600;BME280;35385;55.668;37.508;2023-05-11T00:19:25;99856.81;;;12.61;100.00
36600;BME280;35385;55.668;37.508;2023-05-11T00:20:27;99865.19;;;12.68;100.00
36600;BME280;35385;55.668;37.508;2023-05-11T00:21:27;99880.31;;;12.79;100.00
36600;BME280;35385;55.668;37.508;2023-05-11T00:22:28;99854.13;;;12.61;100.00
36600;BME280;35385;55.668;37.508;2023-05-11T00:23:29;99872.78;;;12.72;100.00
36600;BME280;35385;55.668;37.508;2023-05-11T00:24:29;99829.38;;;12.38;100.00
36600;BME280;35385;55.668;37.508;2023-05-11T00:25:30;99867.66;;;12.60;100.00
36600;BME280;35385;55.668;37.508;2023-05-11T00:26:30;99875.84;;;12.58;100.00
36600;BME280;35385;55.668;37.508;2023-05-11T00:27:31;99831.47;;;12.35;100.00
36600;BME280;35385;55.668;37.508;2023-05-11T00:28:32;99872.78;;;12.63;100.00
36600;BME280;35385;55.668;37.508;2023-05-11T00:29:32;99869.94;;;12.55;100.00
36600;BME280;35385;55.668;37.508;2023-05-11T00:30:33;99869.63;;;12.58;100.00
36600;BME280;35385;55.668;37.508;2023-05-11T00:31:34;99872.06;;;12.61;100.00
36600;BME280;35385;55.668;37.508;2023-05-11T00:32:35;99865.00;;;12.60;100.00
36600;BME280;35385;55.668;37.508;2023-05-11T00:33:36;99878.13;;;12.63;100.00
36600;BME280;35385;55.668;37.508;2023-05-11T00:34:36;99873.22;;;12.68;100.00
36600;BME280;35385;55.668;37.508;2023-05-11T00:35:37;99877.31;;;12.72;100.00
36600;BME280;35385;55.668;37.508;2023-05-11T00:36:37;99792.25;;;12.24;100.00
36600;BME280;35385;55.668;37.508;2023-05-11T00:37:39;99876.75;;;12.68;100.00
36600;BME280;35385;55.668;37.508;2023-05-11T00:38:40;99856.66;;;12.53;100.00
36600;BME280;35385;55.668;37.508;2023-05-11T00:39:41;99832.13;;;12.27;100.00
36600;BME280;35385;55.668;37.508;2023-05-11T00:40:41;99874.00;;;12.59;100.00
36600;BME280;35385;55.668;37.508;2023-05-11T00:41:42;99869.63;;;12.58;100.00
36600;BME280;35385;55.668;37.508;2023-05-11T00:42:43;99849.66;;;12.41;100.00
36600;BME280;35385;55.668;37.508;2023-05-11T00:43:43;99857.28;;;12.36;100.00
36600;BME280;35385;55.668;37.508;2023-05-11T00:44:44;99876.19;;;12.44;100.00
36600;BME280;35385;55.668;37.508;2023-05-11T00:45:45;99871.25;;;12.39;100.00
36600;BME280;35385;55.668;37.508;2023-05-11T00:46:48;99829.13;;;12.21;100.00
36600;BME280;35385;55.668;37.508;2023-05-11T00:47:48;99871.69;;;12.45;100.00
36600;BME280;35385;55.668;37.508;2023-05-11T00:48:49;99872.88;;;12.52;100.00
36600;BME280;35385;55.668;37.508;2023-05-11T00:49:51;99874.84;;;12.59;100.00
36600;BME280;35385;55.668;37.508;2023-05-11T00:50:53;99876.69;;;12.59;100.00
36600;BME280;35385;55.668;37.508;2023-05-11T00:51:53;99871.03;;;12.52;100.00
36600;BME280;35385;55.668;37.508;2023-05-11T00:52:54;99865.53;;;12.54;100.00
36600;BME280;35385;55.668;37.508;2023-05-11T00:53:55;99867.09;;;12.56;100.00
36600;BME280;35385;55.668;37.508;2023-05-11T00:54:56;99880.69;;;12.64;100.00
36600;BME280;35385;55.668;37.508;2023-05-11T00:55:57;99871.31;;;12.59;100.00
36600;BME280;35385;55.668;37.508;2023-05-11T00:56:58;99876.28;;;12.63;100.00
36600;BME280;35385;55.668;37.508;2023-05-11T00:57:58;99881.25;;;12.68;100.00
36600;BME280;35385;55.668;37.508;2023-05-11T00:59:00;99872.63;;;12.64;100.00
36600;BME280;35385;55.668;37.508;2023-05-11T01:00:01;99822.72;;;12.33;100.00
36600;BME280;35385;55.668;37.508;2023-05-11T01:01:07;99871.19;;;12.60;100.00
36600;BME280;35385;55.668;37.508;2023-05-11T01:02:08;99868.66;;;12.59;100.00
36600;BME280;35385;55.668;37.508;2023-05-11T01:03:09;99889.84;;;12.71;100.00
36600;BME280;35385;55.668;37.508;2023-05-11T01:04:11;99878.59;;;12.68;100.00
36600;BME280;35385;55.668;37.508;2023-05-11T01:05:12;99869.09;;;12.64;100.00
36600;BME280;35385;55.668;37.508;2023-05-11T01:06:46;99865.56;;;12.63;100.00
36600;BME280;35385;55.668;37.508;2023-05-11T01:08:56;99880.69;;;12.64;100.00
36600;BME280;35385;55.668;37.508;2023-05-11T01:11:27;99873.03;;;12.60;100.00
36600;BME280;35385;55.668;37.508;2023-05-11T01:12:59;99884.22;;;12.65;100.00
36600;BME280;35385;55.668;37.508;2023-05-11T01:14:28;99886.16;;;12.63;100.00
36600;BME280;35385;55.668;37.508;2023-05-11T01:15:38;99882.91;;;12.59;100.00
36600;BME280;35385;55.668;37.508;2023-05-11T01:16:45;99889.91;;;12.51;100.00
36600;BME280;35385;55.668;37.508;2023-05-11T01:17:56;99882.41;;;12.45;100.00
36600;BME280;35385;55.668;37.508;2023-05-11T01:20:04;99888.34;;;12.48;100.00
36600;BME280;35385;55.668;37.508;2023-05-11T01:21:08;99883.84;;;12.49;100.00
36600;BME280;35385;55.668;37.508;2023-05-11T01:22:44;99894.84;;;12.55;100.00
36600;BME280;35385;55.668;37.508;2023-05-11T01:25:51;99889.78;;;12.52;100.00
36600;BME280;35385;55.668;37.508;2023-05-11T01:28:19;99891.41;;;12.44;100.00
36600;BME280;35385;55.668;37.508;2023-05-11T01:29:40;99886.19;;;12.42;100.00
36600;BME280;35385;55.668;37.508;2023-05-11T01:31:08;99894.94;;;12.44;100.00
36600;BME280;35385;55.668;37.508;2023-05-11T01:32:17;99884.94;;;12.46;100.00
36600;BME280;35385;55.668;37.508;2023-05-11T01:33:25;99892.13;;;12.46;100.00
36600;BME280;35385;55.668;37.508;2023-05-11T01:34:29;99836.41;;;12.09;100.00
36600;BME280;35385;55.668;37.508;2023-05-11T01:35:36;99893.38;;;12.42;100.00
36600;BME280;35385;55.668;37.508;2023-05-11T01:36:42;99885.88;;;12.35;100.00
36600;BME280;35385;55.668;37.508;2023-05-11T01:37:48;99853.63;;;12.16;100.00
36600;BME280;35385;55.668;37.508;2023-05-11T01:38:50;99904.09;;;12.42;100.00
36600;BME280;35385;55.668;37.508;2023-05-11T01:39:53;99889.53;;;12.34;100.00
36600;BME280;35385;55.668;37.508;2023-05-11T01:40:57;99896.78;;;12.44;100.00
36600;BME280;35385;55.668;37.508;2023-05-11T01:42:04;99898.03;;;12.39;100.00
36600;BME280;35385;55.668;37.508;2023-05-11T01:43:11;99902.00;;;12.45;100.00
36600;BME280;35385;55.668;37.508;2023-05-11T01:44:12;99895.81;;;12.45;100.00
36600;BME280;35385;55.668;37.508;2023-05-11T01:45:16;99891.72;;;12.41;100.00
36600;BME280;35385;55.668;37.508;2023-05-11T01:46:20;99897.75;;;12.43;100.00
36600;BME280;35385;55.668;37.508;2023-05-11T01:47:22;99900.44;;;12.43;100.00
36600;BME280;35385;55.668;37.508;2023-05-11T01:48:27;99895.22;;;12.41;100.00
36600;BME280;35385;55.668;37.508;2023-05-11T01:49:31;99895.75;;;12.35;100.00
36600;BME280;35385;55.668;37.508;2023-05-11T01:50:33;99887.50;;;12.27;100.00
36600;BME280;35385;55.668;37.508;2023-05-11T01:51:36;99891.75;;;12.29;100.00
36600;BME280;35385;55.668;37.508;2023-05-11T01:52:39;99886.50;;;12.18;100.00
36600;BME280;35385;55.668;37.508;2023-05-11T01:53:43;99855.75;;;11.92;100.00
36600;BME280;35385;55.668;37.508;2023-05-11T01:54:45;99898.00;;;12.09;100.00
36600;BME280;35385;55.668;37.508;2023-05-11T01:55:48;99880.34;;;12.07;100.00
36600;BME280;35385;55.668;37.508;2023-05-11T01:56:50;99884.59;;;12.09;100.00
36600;BME280;35385;55.668;37.508;2023-05-11T01:57:53;99875.72;;;12.09;100.00
36600;BME280;35385;55.668;37.508;2023-05-11T01:58:55;99883.63;;;12.10;100.00
36600;BME280;35385;55.668;37.508;2023-05-11T01:59:56;99875.59;;;12.10;100.00
36600;BME280;35385;55.668;37.508;2023-05-11T02:00:58;99882.97;;;12.18;100.00
36600;BME280;35385;55.668;37.508;2023-05-11T02:02:00;99834.19;;;11.93;100.00
36600;BME280;35385;55.668;37.508;2023-05-11T02:03:04;99888.66;;;12.24;100.00
36600;BME280;35385;55.668;37.508;2023-05-11T02:04:06;99879.09;;;12.31;100.00
36600;BME280;35385;55.668;37.508;2023-05-11T02:05:09;99879.81;;;12.33;100.00
36600;BME280;35385;55.668;37.508;2023-05-11T02:06:12;99831.78;;;12.11;100.00
36600;BME280;35385;55.668;37.508;2023-05-11T02:07:15;99880.69;;;12.44;100.00
36600;BME280;35385;55.668;37.508;2023-05-11T02:08:19;99876.63;;;12.39;100.00
36600;BME280;35385;55.668;37.508;2023-05-11T02:09:20;99870.53;;;12.37;100.00
36600;BME280;35385;55.668;37.508;2023-05-11T02:10:25;99880.44;;;12.47;100.00
36600;BME280;35385;55.668;37.508;2023-05-11T02:11:28;99873.78;;;12.41;100.00
36600;BME280;35385;55.668;37.508;2023-05-11T02:12:31;99877.19;;;12.43;100.00
36600;BME280;35385;55.668;37.508;2023-05-11T02:13:35;99887.63;;;12.46;100.00
36600;BME280;35385;55.668;37.508;2023-05-11T02:14:38;99885.09;;;12.45;100.00
36600;BME280;35385;55.668;37.508;2023-05-11T02:15:40;99884.81;;;12.48;100.00
36600;BME280;35385;55.668;37.508;2023-05-11T02:16:42;99871.38;;;12.38;100.00
36600;BME280;35385;55.668;37.508;2023-05-11T02:17:45;99875.34;;;12.44;100.00
36600;BME280;35385;55.668;37.508;2023-05-11T02:18:46;99888.22;;;12.50;100.00
36600;BME280;35385;55.668;37.508;2023-05-11T02:19:47;99888.69;;;12.55;100.00
36600;BME280;35385;55.668;37.508;2023-05-11T02:20:48;99879.47;;;12.48;100.00
36600;BME280;35385;55.668;37.508;2023-05-11T02:21:52;99881.34;;;12.57;100.00
36600;BME280;35385;55.668;37.508;2023-05-11T02:22:54;99887.66;;;12.56;100.00
36600;BME280;35385;55.668;37.508;2023-05-11T02:23:55;99830.41;;;12.26;100.00
36600;BME280;35385;55.668;37.508;2023-05-11T02:24:57;99798.94;;;12.09;100.00
36600;BME280;35385;55.668;37.508;2023-05-11T02:25:58;99872.75;;;12.53;100.00
36600;BME280;35385;55.668;37.508;2023-05-11T02:26:59;99875.84;;;12.58;100.00
36600;BME280;35385;55.668;37.508;2023-05-11T02:28:00;99876.25;;;12.54;100.00
36600;BME280;35385;55.668;37.508;2023-05-11T02:29:00;99877.50;;;12.50;100.00
36600;BME280;35385;55.668;37.508;2023-05-11T02:30:02;99878.34;;;12.50;100.00
36600;BME280;35385;55.668;37.508;2023-05-11T02:31:08;99876.94;;;12.56;100.00
36600;BME280;35385;55.668;37.508;2023-05-11T02:32:16;99876.69;;;12.59;100.00
36600;BME280;35385;55.668;37.508;2023-05-11T02:33:20;99882.06;;;12.59;100.00
36600;BME280;35385;55.668;37.508;2023-05-11T02:34:26;99884.94;;;12.67;100.00
36600;BME280;35385;55.668;37.508;2023-05-11T02:35:32;99878.66;;;12.57;100.00
36600;BME280;35385;55.668;37.508;2023-05-11T02:36:37;99880.63;;;12.55;100.00
36600;BME280;35385;55.668;37.508;2023-05-11T02:37:42;99893.50;;;12.61;100.00
36600;BME280;35385;55.668;37.508;2023-05-11T02:38:45;99886.03;;;12.64;100.00
36600;BME280;35385;55.668;37.508;2023-05-11T02:39:50;99892.66;;;12.70;100.00
36600;BME280;35385;55.668;37.508;2023-05-11T02:40:55;99893.09;;;12.65;100.00
36600;BME280;35385;55.668;37.508;2023-05-11T02:42:00;99843.28;;;12.32;100.00
36600;BME280;35385;55.668;37.508;2023-05-11T02:43:11;99889.09;;;12.60;100.00
36600;BME280;35385;55.668;37.508;2023-05-11T02:44:14;99895.44;;;12.59;100.00
36600;BME280;35385;55.668;37.508;2023-05-11T02:45:18;99859.38;;;12.32;100.00
36600;BME280;35385;55.668;37.508;2023-05-11T02:46:26;99895.78;;;12.65;100.00
36600;BME280;35385;55.668;37.508;2023-05-11T02:47:36;99893.09;;;12.65;100.00
36600;BME280;35385;55.668;37.508;2023-05-11T02:48:43;99886.88;;;12.65;100.00
36600;BME280;35385;55.668;37.508;2023-05-11T02:49:46;99852.94;;;12.45;100.00
36600;BME280;35385;55.668;37.508;2023-05-11T02:50:54;99908.63;;;12.71;100.00
36600;BME280;35385;55.668;37.508;2023-05-11T02:51:56;99897.38;;;12.78;100.00
36600;BME280;35385;55.668;37.508;2023-05-11T02:53:02;99769.50;;;11.88;100.00
36600;BME280;35385;55.668;37.508;2023-05-11T02:54:07;99872.75;;;12.53;100.00
36600;BME280;35385;55.668;37.508;2023-05-11T02:55:14;99861.44;;;12.50;100.00
36600;BME280;35385;55.668;37.508;2023-05-11T02:56:16;99899.72;;;12.71;100.00
36600;BME280;35385;55.668;37.508;2023-05-11T02:57:18;99899.22;;;12.77;100.00
36600;BME280;35385;55.668;37.508;2023-05-11T02:58:19;99884.38;;;12.73;100.00
36600;BME280;35385;55.668;37.508;2023-05-11T02:59:20;99860.63;;;12.59;100.00
36600;BME280;35385;55.668;37.508;2023-05-11T03:00:20;99848.50;;;12.55;100.00
36600;BME280;35385;55.668;37.508;2023-05-11T03:01:21;99902.22;;;12.93;100.00
36600;BME280;35385;55.668;37.508;2023-05-11T03:02:22;99896.31;;;12.99;100.00
36600;BME280;35385;55.668;37.508;2023-05-11T03:03:23;99851.66;;;12.69;100.00
36600;BME280;35385;55.668;37.508;2023-05-11T03:04:24;99862.41;;;12.79;100.00
36600;BME280;35385;55.668;37.508;2023-05-11T03:05:25;99854.75;;;12.74;100.00
36600;BME280;35385;55.668;37.508;2023-05-11T03:06:25;99903.81;;;13.05;100.00
36600;BME280;35385;55.668;37.508;2023-05-11T03:07:26;99898.47;;;13.05;100.00
36600;BME280;35385;55.668;37.508;2023-05-11T03:08:27;99908.66;;;13.12;100.00
36600;BME280;35385;55.668;37.508;2023-05-11T03:09:27;99894.66;;;13.08;100.00
36600;BME280;35385;55.668;37.508;2023-05-11T03:10:28;99903.75;;;13.17;100.00
36600;BME280;35385;55.668;37.508;2023-05-11T03:11:29;99899.34;;;13.16;100.00
36600;BME280;35385;55.668;37.508;2023-05-11T03:12:30;99894.72;;;13.18;100.00
36600;BME280;35385;55.668;37.508;2023-05-11T03:13:33;99868.81;;;12.97;100.00
36600;BME280;35385;55.668;37.508;2023-05-11T03:14:34;99896.22;;;13.10;100.00
36600;BME280;35385;55.668;37.508;2023-05-11T03:15:39;99901.28;;;13.14;100.00
36600;BME280;35385;55.668;37.508;2023-05-11T03:16:40;99914.19;;;13.20;100.00
36600;BME280;35385;55.668;37.508;2023-05-11T03:17:42;99902.00;;;13.06;100.00
36600;BME280;35385;55.668;37.508;2023-05-11T03:18:44;99866.22;;;12.86;100.00
36600;BME280;35385;55.668;37.508;2023-05-11T03:19:45;99889.53;;;12.95;100.00
36600;BME280;35385;55.668;37.508;2023-05-11T03:20:46;99909.63;;;13.10;100.00
36600;BME280;35385;55.668;37.508;2023-05-11T03:21:48;99911.06;;;13.15;100.00
36600;BME280;35385;55.668;37.508;2023-05-11T03:22:51;99860.13;;;12.74;100.00
36600;BME280;35385;55.668;37.508;2023-05-11T03:23:52;99850.50;;;12.72;100.00
36600;BME280;35385;55.668;37.508;2023-05-11T03:24:53;99910.03;;;13.06;100.00
36600;BME280;35385;55.668;37.508;2023-05-11T03:25:54;99894.66;;;12.98;100.00
36600;BME280;35385;55.668;37.508;2023-05-11T03:26:56;99867.19;;;12.85;100.00
36600;BME280;35385;55.668;37.508;2023-05-11T03:27:57;99913.75;;;13.15;100.00
36600;BME280;35385;55.668;37.508;2023-05-11T03:29:00;99864.69;;;12.93;100.00
36600;BME280;35385;55.668;37.508;2023-05-11T03:30:10;99910.00;;;13.27;100.00
36600;BME280;35385;55.668;37.508;2023-05-11T03:31:17;99911.66;;;13.28;100.00
36600;BME280;35385;55.668;37.508;2023-05-11T03:32:18;99859.06;;;12.96;100.00
36600;BME280;35385;55.668;37.508;2023-05-11T03:33:18;99906.03;;;13.31;100.00
36600;BME280;35385;55.668;37.508;2023-05-11T03:34:20;99904.91;;;13.33;100.00
36600;BME280;35385;55.668;37.508;2023-05-11T03:35:24;99916.75;;;13.31;100.00
36600;BME280;35385;55.668;37.508;2023-05-11T03:36:26;99873.19;;;12.98;100.00
36600;BME280;35385;55.668;37.508;2023-05-11T03:37:29;99924.66;;;13.23;100.00
36600;BME280;35385;55.668;37.508;2023-05-11T03:38:31;99920.81;;;13.16;100.00
36600;BME280;35385;55.668;37.508;2023-05-11T03:39:35;99877.53;;;12.99;100.00
36600;BME280;35385;55.668;37.508;2023-05-11T03:40:37;99921.78;;;13.15;100.00
36600;BME280;35385;55.668;37.508;2023-05-11T03:41:39;99922.97;;;13.22;100.00
36600;BME280;35385;55.668;37.508;2023-05-11T03:42:41;99919.03;;;13.26;100.00
36600;BME280;35385;55.668;37.508;2023-05-11T03:43:44;99914.50;;;13.26;100.00
36600;BME280;35385;55.668;37.508;2023-05-11T03:44:48;99918.03;;;13.27;100.00
36600;BME280;35385;55.668;37.508;2023-05-11T03:45:50;99913.09;;;13.22;100.00
36600;BME280;35385;55.668;37.508;2023-05-11T03:46:53;99872.28;;;12.88;100.00
36600;BME280;35385;55.668;37.508;2023-05-11T03:47:55;99866.28;;;13.05;100.00
36600;BME280;35385;55.668;37.508;2023-05-11T03:48:56;99919.31;;;13.42;100.00
36600;BME280;35385;55.668;37.508;2023-05-11T03:49:58;99919.06;;;13.45;100.00
36600;BME280;35385;55.668;37.508;2023-05-11T03:51:03;99928.25;;;13.52;100.00
36600;BME280;35385;55.668;37.508;2023-05-11T03:52:04;99927.81;;;13.57;100.00
36600;BME280;35385;55.668;37.508;2023-05-11T03:53:05;99930.09;;;13.52;100.00
36600;BME280;35385;55.668;37.508;2023-05-11T03:54:06;99933.75;;;13.60;100.00
36600;BME280;35385;55.668;37.508;2023-05-11T03:55:08;99934.34;;;13.64;98.94
36600;BME280;35385;55.668;37.508;2023-05-11T03:56:09;99934.19;;;13.56;99.28
36600;BME280;35385;55.668;37.508;2023-05-11T03:57:10;99931.34;;;13.57;99.64
36600;BME280;35385;55.668;37.508;2023-05-11T03:58:10;99933.75;;;13.60;98.93
36600;BME280;35385;55.668;37.508;2023-05-11T03:59:15;99937.59;;;13.67;100.00
36600;BME280;35385;55.668;37.508;2023-05-11T04:00:16;99928.97;;;13.64;96.13
36600;BME280;35385;55.668;37.508;2023-05-11T04:01:20;99925.44;;;13.54;96.70
36600;BME280;35385;55.668;37.508;2023-05-11T04:02:41;99938.00;;;13.72;97.58
36600;BME280;35385;55.668;37.508;2023-05-11T04:03:49;99947.09;;;13.81;98.52
36600;BME280;35385;55.668;37.508;2023-05-11T04:04:50;99888.28;;;13.49;97.01
36600;BME280;35385;55.668;37.508;2023-05-11T04:05:52;99932.94;;;13.89;95.28
36600;BME280;35385;55.668;37.508;2023-05-11T04:06:52;99906.50;;;13.55;93.69
36600;BME280;35385;55.668;37.508;2023-05-11T04:07:53;99935.50;;;13.80;94.52
36600;BME280;35385;55.668;37.508;2023-05-11T04:08:56;99924.31;;;13.85;92.46
36600;BME280;35385;55.668;37.508;2023-05-11T04:09:57;99931.53;;;13.85;90.54
36600;BME280;35385;55.668;37.508;2023-05-11T04:10:57;99937.31;;;13.80;91.20
36600;BME280;35385;55.668;37.508;2023-05-11T04:11:58;99890.81;;;13.60;91.16
36600;BME280;35385;55.668;37.508;2023-05-11T04:12:59;99939.19;;;13.99;91.37
36600;BME280;35385;55.668;37.508;2023-05-11T04:13:59;99928.69;;;14.05;92.89
36600;BME280;35385;55.668;37.508;2023-05-11T04:15:00;99872.19;;;13.68;92.51
36600;BME280;35385;55.668;37.508;2023-05-11T04:16:01;99929.53;;;14.06;92.93
36600;BME280;35385;55.668;37.508;2023-05-11T04:17:01;99928.00;;;14.13;91.60
36600;BME280;35385;55.668;37.508;2023-05-11T04:18:02;99914.28;;;13.97;91.32
36600;BME280;35385;55.668;37.508;2023-05-11T04:19:03;99934.34;;;14.02;90.91
36600;BME280;35385;55.668;37.508;2023-05-11T04:20:07;99930.66;;;14.03;91.17
36600;BME280;35385;55.668;37.508;2023-05-11T04:21:08;99946.22;;;14.09;91.14
36600;BME280;35385;55.668;37.508;2023-05-11T04:22:08;99947.09;;;14.10;90.33
36600;BME280;35385;55.668;37.508;2023-05-11T04:23:11;99924.72;;;14.00;91.13
36600;BME280;35385;55.668;37.508;2023-05-11T04:24:11;99908.63;;;13.90;91.62
36600;BME280;35385;55.668;37.508;2023-05-11T04:25:12;99942.97;;;14.25;91.35
36600;BME280;35385;55.668;37.508;2023-05-11T04:26:14;99944.94;;;14.33;91.68
36600;BME280;35385;55.668;37.508;2023-05-11T04:27:14;99942.81;;;14.36;92.46
36600;BME280;35385;55.668;37.508;2023-05-11T04:28:16;99940.69;;;14.30;93.21
36600;BME280;35385;55.668;37.508;2023-05-11T04:29:17;99945.50;;;14.36;92.53
36600;BME280;35385;55.668;37.508;2023-05-11T04:30:18;99947.66;;;14.42;93.10
36600;BME280;35385;55.668;37.508;2023-05-11T04:31:21;99911.72;;;14.24;92.77
36600;BME280;35385;55.668;37.508;2023-05-11T04:32:22;99945.78;;;14.33;94.52
36600;BME280;35385;55.668;37.508;2023-05-11T04:33:23;99951.44;;;14.30;94.10
36600;BME280;35385;55.668;37.508;2023-05-11T04:34:27;99900.56;;;14.00;93.95
36600;BME280;35385;55.668;37.508;2023-05-11T04:35:27;99943.09;;;14.24;96.07
36600;BME280;35385;55.668;37.508;2023-05-11T04:36:28;99952.28;;;14.21;94.60
36600;BME280;35385;55.668;37.508;2023-05-11T04:37:29;99948.75;;;14.21;92.29
36600;BME280;35385;55.668;37.508;2023-05-11T04:38:29;99898.19;;;13.97;91.65
36600;BME280;35385;55.668;37.508;2023-05-11T04:39:30;99940.84;;;14.19;91.34
36600;BME280;35385;55.668;37.508;2023-05-11T04:40:31;99941.72;;;14.10;92.38
36600;BME280;35385;55.668;37.508;2023-05-11T04:41:31;99923.19;;;14.07;91.99
36600;BME280;35385;55.668;37.508;2023-05-11T04:42:32;99951.84;;;14.35;90.92
36600;BME280;35385;55.668;37.508;2023-05-11T04:43:32;99926.69;;;14.36;90.96
36600;BME280;35385;55.668;37.508;2023-05-11T04:44:33;99951.88;;;14.55;90.66
36600;BME280;35385;55.668;37.508;2023-05-11T04:45:34;99940.78;;;14.58;89.63
36600;BME280;35385;55.668;37.508;2023-05-11T04:46:37;99911.69;;;14.43;90.23
36600;BME280;35385;55.668;37.508;2023-05-11T04:47:38;99948.81;;;14.77;90.45
36600;BME280;35385;55.668;37.508;2023-05-11T04:48:38;99954.09;;;14.69;88.56
36600;BME280;35385;55.668;37.508;2023-05-11T04:49:39;99948.81;;;14.77;88.30
36600;BME280;35385;55.668;37.508;2023-05-11T04:50:40;99946.13;;;14.77;89.50
36600;BME280;35385;55.668;37.508;2023-05-11T04:51:40;99950.03;;;14.92;88.98
36600;BME280;35385;55.668;37.508;2023-05-11T04:52:41;99947.06;;;14.95;88.04
36600;BME280;35385;55.668;37.508;2023-05-11T04:53:42;99864.88;;;14.46;88.80
36600;BME280;35385;55.668;37.508;2023-05-11T04:54:42;99948.81;;;14.77;86.77
36600;BME280;35385;55.668;37.508;2023-05-11T04:55:43;99907.69;;;14.67;85.39
36600;BME280;35385;55.668;37.508;2023-05-11T04:56:44;99944.47;;;15.03;84.49
36600;BME280;35385;55.668;37.508;2023-05-11T04:57:44;99948.72;;;15.06;82.92
36600;BME280;35385;55.668;37.508;2023-05-11T04:58:45;99942.16;;;14.81;85.62
36600;BME280;35385;55.668;37.508;2023-05-11T04:59:45;99911.09;;;14.59;84.34
36600;BME280;35385;55.668;37.508;2023-05-11T05:00:46;99950.09;;;14.82;83.88
36600;BME280;35385;55.668;37.508;2023-05-11T05:01:46;99945.59;;;14.64;84.17
36600;BME280;35385;55.668;37.508;2023-05-11T05:02:47;99874.84;;;14.07;84.62
36600;BME280;35385;55.668;37.508;2023-05-11T05:03:49;99939.13;;;14.57;85.79
36600;BME280;35385;55.668;37.508;2023-05-11T05:04:50;99945.88;;;14.61;84.64
36600;BME280;35385;55.668;37.508;2023-05-11T05:05:51;99935.56;;;14.66;83.72
36600;BME280;35385;55.668;37.508;2023-05-11T05:06:51;99946.00;;;14.78;83.18
36600;BME280;35385;55.668;37.508;2023-05-11T05:07:52;99932.81;;;14.85;82.52
36600;BME280;35385;55.668;37.508;2023-05-11T05:08:52;99949.19;;;14.92;82.60
36600;BME280;35385;55.668;37.508;2023-05-11T05:09:53;99943.81;;;14.92;82.71
36600;BME280;35385;55.668;37.508;2023-05-11T05:10:53;99907.50;;;14.78;82.85
36600;BME280;35385;55.668;37.508;2023-05-11T05:13:50;99947.72;;;15.34;80.84
36600;BME280;35385;55.668;37.508;2023-05-11T05:14:51;99929.34;;;15.57;79.77
36600;BME280;35385;55.668;37.508;2023-05-11T05:15:52;99949.66;;;16.05;77.64
36600;BME280;35385;55.668;37.508;2023-05-11T05:16:52;99938.94;;;16.31;75.70
36600;BME280;35385;55.668;37.508;2023-05-11T05:17:53;99898.69;;;16.29;74.20
36600;BME280;35385;55.668;37.508;2023-05-11T05:18:54;99939.44;;;16.52;75.28
36600;BME280;35385;55.668;37.508;2023-05-11T05:19:55;99935.78;;;16.61;74.52
36600;BME280;35385;55.668;37.508;2023-05-11T05:20:57;99946.19;;;16.74;72.93
36600;BME280;35385;55.668;37.508;2023-05-11T05:22:00;99918.59;;;16.62;73.34
36600;BME280;35385;55.668;37.508;2023-05-11T05:23:01;99933.25;;;16.59;74.84
36600;BME280;35385;55.668;37.508;2023-05-11T05:24:02;99950.22;;;16.52;75.30
36600;BME280;35385;55.668;37.508;2023-05-11T05:25:03;99942.97;;;16.52;74.92
36600;BME280;35385;55.668;37.508;2023-05-11T05:26:05;99945.13;;;16.67;74.53
36600;BME280;35385;55.668;37.508;2023-05-11T05:27:06;99946.44;;;16.45;74.74
36600;BME280;35385;55.668;37.508;2023-05-11T05:28:06;99953.72;;;16.44;74.43
36600;BME280;35385;55.668;37.508;2023-05-11T05:29:07;99942.88;;;16.18;75.85
36600;BME280;35385;55.668;37.508;2023-05-11T05:30:08;99930.91;;;16.13;75.01
36600;BME280;35385;55.668;37.508;2023-05-11T05:31:08;99934.75;;;15.93;76.08
36600;BME280;35385;55.668;37.508;2023-05-11T05:32:09;99865.84;;;15.54;78.10
36600;BME280;35385;55.668;37.508;2023-05-11T05:33:09;99947.84;;;16.49;77.35